sensor_id;sensor_type;location;lat;lon;timestamp;P1;durP1;ratioP1;P2;durP2;ratioP2
12469;SDS011;36499;46.484;13.832;2023-02-11T00:00:21;16.27;;;6.00;;
12469;SDS011;36499;46.484;13.832;2023-02-11T00:02:48;13.43;;;6.45;;
12469;SDS011;36499;46.484;13.832;2023-02-11T00:05:17;13.38;;;6.57;;
12469;SDS011;36499;46.484;13.832;2023-02-11T00:07:44;10.05;;;5.80;;
12469;SDS011;36499;46.484;13.832;2023-02-11T00:10:11;10.07;;;5.90;;
12469;SDS011;36499;46.484;13.832;2023-02-11T00:12:38;12.67;;;6.13;;
12469;SDS011;36499;46.484;13.832;2023-02-11T00:15:07;9.30;;;5.75;;
12469;SDS011;36499;46.484;13.832;2023-02-11T00:17:35;11.47;;;5.77;;
12469;SDS011;36499;46.484;13.832;2023-02-11T00:20:03;11.82;;;5.70;;
12469;SDS011;36499;46.484;13.832;2023-02-11T00:22:32;12.27;;;5.75;;
12469;SDS011;36499;46.484;13.832;2023-02-11T00:24:59;9.73;;;5.30;;
12469;SDS011;36499;46.484;13.832;2023-02-11T00:27:26;8.97;;;5.10;;
12469;SDS011;36499;46.484;13.832;2023-02-11T00:29:53;8.02;;;4.57;;
12469;SDS011;36499;46.484;13.832;2023-02-11T00:32:20;8.02;;;4.82;;
12469;SDS011;36499;46.484;13.832;2023-02-11T00:34:50;9.85;;;5.32;;
12469;SDS011;36499;46.484;13.832;2023-02-11T00:37:19;7.50;;;4.40;;
12469;SDS011;36499;46.484;13.832;2023-02-11T00:39:47;9.52;;;5.20;;
12469;SDS011;36499;46.484;13.832;2023-02-11T00:42:15;10.00;;;5.32;;
12469;SDS011;36499;46.484;13.832;2023-02-11T00:44:42;10.10;;;5.13;;
12469;SDS011;36499;46.484;13.832;2023-02-11T00:47:09;10.25;;;5.38;;
12469;SDS011;36499;46.484;13.832;2023-02-11T00:49:36;10.27;;;5.47;;
12469;SDS011;36499;46.484;13.832;2023-02-11T00:52:04;8.90;;;4.83;;
12469;SDS011;36499;46.484;13.832;2023-02-11T00:54:31;8.60;;;5.10;;
12469;SDS011;36499;46.484;13.832;2023-02-11T00:57:00;8.82;;;4.75;;
12469;SDS011;36499;46.484;13.832;2023-02-11T00:59:27;7.78;;;4.45;;
12469;SDS011;36499;46.484;13.832;2023-02-11T01:01:54;8.60;;;4.72;;
12469;SDS011;36499;46.484;13.832;2023-02-11T01:04:21;7.57;;;4.43;;
12469;SDS011;36499;46.484;13.832;2023-02-11T01:06:48;7.90;;;4.73;;
12469;SDS011;36499;46.484;13.832;2023-02-11T01:09:16;7.45;;;4.65;;
12469;SDS011;36499;46.484;13.832;2023-02-11T01:11:45;7.60;;;4.80;;
12469;SDS011;36499;46.484;13.832;2023-02-11T01:14:13;10.95;;;4.95;;
12469;SDS011;36499;46.484;13.832;2023-02-11T01:16:41;7.23;;;4.70;;
12469;SDS011;36499;46.484;13.832;2023-02-11T01:19:08;8.97;;;4.67;;
12469;SDS011;36499;46.484;13.832;2023-02-11T01:21:35;9.50;;;4.37;;
12469;SDS011;36499;46.484;13.832;2023-02-11T01:24:02;8.85;;;4.40;;
12469;SDS011;36499;46.484;13.832;2023-02-11T01:26:29;11.15;;;4.80;;
12469;SDS011;36499;46.484;13.832;2023-02-11T01:28:57;7.95;;;4.10;;
12469;SDS011;36499;46.484;13.832;2023-02-11T01:31:26;7.63;;;4.13;;
12469;SDS011;36499;46.484;13.832;2023-02-11T01:33:55;6.97;;;4.27;;
12469;SDS011;36499;46.484;13.832;2023-02-11T01:36:22;11.85;;;4.22;;
12469;SDS011;36499;46.484;13.832;2023-02-11T01:38:49;6.03;;;3.85;;
12469;SDS011;36499;46.484;13.832;2023-02-11T01:41:16;7.13;;;3.53;;
12469;SDS011;36499;46.484;13.832;2023-02-11T01:43:44;9.17;;;4.10;;
12469;SDS011;36499;46.484;13.832;2023-02-11T01:46:16;6.95;;;3.92;;
12469;SDS011;36499;46.484;13.832;2023-02-11T01:49:02;7.72;;;4.15;;
12469;SDS011;36499;46.484;13.832;2023-02-11T01:51:35;10.27;;;4.10;;
12469;SDS011;36499;46.484;13.832;2023-02-11T01:54:08;7.45;;;4.00;;
12469;SDS011;36499;46.484;13.832;2023-02-11T01:56:57;6.82;;;4.00;;
12469;SDS011;36499;46.484;13.832;2023-02-11T01:59:46;21.92;;;3.53;;
12469;SDS011;36499;46.484;13.832;2023-02-11T02:02:28;7.63;;;3.88;;
12469;SDS011;36499;46.484;13.832;2023-02-11T02:05:04;7.45;;;3.78;;
12469;SDS011;36499;46.484;13.832;2023-02-11T02:07:41;4.70;;;2.73;;
12469;SDS011;36499;46.484;13.832;2023-02-11T02:10:18;6.22;;;3.28;;
12469;SDS011;36499;46.484;13.832;2023-02-11T02:12:51;4.18;;;2.65;;
12469;SDS011;36499;46.484;13.832;2023-02-11T02:15:20;6.85;;;3.60;;
12469;SDS011;36499;46.484;13.832;2023-02-11T02:18:02;4.70;;;3.10;;
12469;SDS011;36499;46.484;13.832;2023-02-11T02:30:34;5.13;;;3.00;;
12469;SDS011;36499;46.484;13.832;2023-02-11T02:33:41;6.72;;;2.90;;
12469;SDS011;36499;46.484;13.832;2023-02-11T02:36:20;4.57;;;2.83;;
12469;SDS011;36499;46.484;13.832;2023-02-11T02:38:54;4.88;;;2.90;;
12469;SDS011;36499;46.484;13.832;2023-02-11T02:41:29;6.97;;;3.30;;
12469;SDS011;36499;46.484;13.832;2023-02-11T02:43:59;6.55;;;3.25;;
12469;SDS011;36499;46.484;13.832;2023-02-11T02:46:28;4.80;;;2.88;;
12469;SDS011;36499;46.484;13.832;2023-02-11T02:48:59;4.60;;;2.95;;
12469;SDS011;36499;46.484;13.832;2023-02-11T02:51:35;4.00;;;2.60;;
12469;SDS011;36499;46.484;13.832;2023-02-11T02:54:41;5.25;;;2.45;;
12469;SDS011;36499;46.484;13.832;2023-02-11T02:57:34;3.63;;;2.42;;
12469;SDS011;36499;46.484;13.832;2023-02-11T03:00:22;4.03;;;2.55;;
12469;SDS011;36499;46.484;13.832;2023-02-11T03:03:00;4.90;;;2.47;;
12469;SDS011;36499;46.484;13.832;2023-02-11T03:05:53;5.60;;;2.80;;
12469;SDS011;36499;46.484;13.832;2023-02-11T03:08:29;4.90;;;2.67;;
12469;SDS011;36499;46.484;13.832;2023-02-11T03:11:04;4.90;;;2.40;;
12469;SDS011;36499;46.484;13.832;2023-02-11T03:13:35;5.03;;;3.08;;
12469;SDS011;36499;46.484;13.832;2023-02-11T03:16:06;4.90;;;2.60;;
12469;SDS011;36499;46.484;13.832;2023-02-11T03:18:39;4.40;;;2.27;;
12469;SDS011;36499;46.484;13.832;2023-02-11T03:21:13;4.20;;;2.83;;
12469;SDS011;36499;46.484;13.832;2023-02-11T03:23:43;6.43;;;3.10;;
12469;SDS011;36499;46.484;13.832;2023-02-11T03:26:20;6.67;;;3.40;;
12469;SDS011;36499;46.484;13.832;2023-02-11T03:28:54;3.30;;;2.65;;
12469;SDS011;36499;46.484;13.832;2023-02-11T03:31:28;4.07;;;2.57;;
12469;SDS011;36499;46.484;13.832;2023-02-11T03:34:05;3.63;;;2.50;;
12469;SDS011;36499;46.484;13.832;2023-02-11T03:36:41;3.97;;;2.33;;
12469;SDS011;36499;46.484;13.832;2023-02-11T03:39:15;3.72;;;2.50;;
12469;SDS011;36499;46.484;13.832;2023-02-11T03:41:50;3.27;;;2.10;;
12469;SDS011;36499;46.484;13.832;2023-02-11T03:44:22;4.73;;;2.43;;
12469;SDS011;36499;46.484;13.832;2023-02-11T03:46:56;9.43;;;3.17;;
12469;SDS011;36499;46.484;13.832;2023-02-11T03:49:26;4.40;;;2.60;;
12469;SDS011;36499;46.484;13.832;2023-02-11T03:51:56;3.93;;;1.97;;
12469;SDS011;36499;46.484;13.832;2023-02-11T03:54:28;4.13;;;2.30;;
12469;SDS011;36499;46.484;13.832;2023-02-11T03:56:57;6.57;;;2.37;;
12469;SDS011;36499;46.484;13.832;2023-02-11T03:59:27;4.93;;;2.70;;
12469;SDS011;36499;46.484;13.832;2023-02-11T04:01:55;3.27;;;1.80;;
12469;SDS011;36499;46.484;13.832;2023-02-11T04:04:23;5.17;;;2.73;;
12469;SDS011;36499;46.484;13.832;2023-02-11T04:06:50;4.23;;;3.00;;
12469;SDS011;36499;46.484;13.832;2023-02-11T04:09:19;4.50;;;2.53;;
12469;SDS011;36499;46.484;13.832;2023-02-11T04:11:47;5.27;;;2.90;;
12469;SDS011;36499;46.484;13.832;2023-02-11T04:14:14;4.03;;;2.63;;
12469;SDS011;36499;46.484;13.832;2023-02-11T04:16:41;5.93;;;2.83;;
12469;SDS011;36499;46.484;13.832;2023-02-11T04:19:08;6.90;;;3.03;;
12469;SDS011;36499;46.484;13.832;2023-02-11T04:21:35;6.23;;;2.97;;
12469;SDS011;36499;46.484;13.832;2023-02-11T04:24:02;7.13;;;2.90;;
12469;SDS011;36499;46.484;13.832;2023-02-11T04:26:31;5.43;;;3.03;;
12469;SDS011;36499;46.484;13.832;2023-02-11T04:28:58;6.17;;;3.07;;
12469;SDS011;36499;46.484;13.832;2023-02-11T04:31:25;4.53;;;2.43;;
12469;SDS011;36499;46.484;13.832;2023-02-11T04:33:52;4.07;;;2.40;;
12469;SDS011;36499;46.484;13.832;2023-02-11T04:36:19;3.13;;;2.27;;
12469;SDS011;36499;46.484;13.832;2023-02-11T04:38:46;5.33;;;2.97;;
12469;SDS011;36499;46.484;13.832;2023-02-11T04:41:13;3.60;;;2.57;;
12469;SDS011;36499;46.484;13.832;2023-02-11T04:43:42;3.80;;;2.70;;
12469;SDS011;36499;46.484;13.832;2023-02-11T04:46:09;5.60;;;3.00;;
12469;SDS011;36499;46.484;13.832;2023-02-11T04:48:36;4.30;;;2.67;;
12469;SDS011;36499;46.484;13.832;2023-02-11T04:51:04;5.33;;;2.47;;
12469;SDS011;36499;46.484;13.832;2023-02-11T04:53:31;3.33;;;2.33;;
12469;SDS011;36499;46.484;13.832;2023-02-11T04:55:58;5.17;;;2.50;;
12469;SDS011;36499;46.484;13.832;2023-02-11T04:58:26;3.00;;;2.27;;
12469;SDS011;36499;46.484;13.832;2023-02-11T05:00:54;4.67;;;2.70;;
12469;SDS011;36499;46.484;13.832;2023-02-11T05:03:21;2.90;;;2.10;;
12469;SDS011;36499;46.484;13.832;2023-02-11T05:05:48;3.63;;;2.63;;
12469;SDS011;36499;46.484;13.832;2023-02-11T05:08:15;4.70;;;3.00;;
12469;SDS011;36499;46.484;13.832;2023-02-11T05:10:44;5.03;;;2.97;;
12469;SDS011;36499;46.484;13.832;2023-02-11T05:13:12;4.73;;;3.37;;
12469;SDS011;36499;46.484;13.832;2023-02-11T05:15:39;6.47;;;3.90;;
12469;SDS011;36499;46.484;13.832;2023-02-11T05:18:07;5.30;;;3.70;;
12469;SDS011;36499;46.484;13.832;2023-02-11T05:20:36;10.00;;;4.30;;
12469;SDS011;36499;46.484;13.832;2023-02-11T05:23:03;7.23;;;3.07;;
12469;SDS011;36499;46.484;13.832;2023-02-11T05:25:30;5.00;;;2.93;;
12469;SDS011;36499;46.484;13.832;2023-02-11T05:27:58;5.60;;;3.27;;
12469;SDS011;36499;46.484;13.832;2023-02-11T05:30:25;5.43;;;3.00;;
12469;SDS011;36499;46.484;13.832;2023-02-11T05:32:53;6.80;;;3.03;;
12469;SDS011;36499;46.484;13.832;2023-02-11T05:35:21;4.43;;;2.83;;
12469;SDS011;36499;46.484;13.832;2023-02-11T05:37:48;5.63;;;2.87;;
12469;SDS011;36499;46.484;13.832;2023-02-11T05:40:16;6.60;;;2.67;;
12469;SDS011;36499;46.484;13.832;2023-02-11T05:42:43;3.50;;;2.27;;
12469;SDS011;36499;46.484;13.832;2023-02-11T05:45:10;4.47;;;2.47;;
12469;SDS011;36499;46.484;13.832;2023-02-11T05:47:37;4.83;;;2.90;;
12469;SDS011;36499;46.484;13.832;2023-02-11T05:50:04;3.97;;;2.50;;
12469;SDS011;36499;46.484;13.832;2023-02-11T05:52:33;5.80;;;2.50;;
12469;SDS011;36499;46.484;13.832;2023-02-11T05:55:00;5.50;;;2.50;;
12469;SDS011;36499;46.484;13.832;2023-02-11T05:57:28;3.47;;;2.38;;
12469;SDS011;36499;46.484;13.832;2023-02-11T05:59:55;3.50;;;2.42;;
12469;SDS011;36499;46.484;13.832;2023-02-11T06:02:22;4.17;;;2.40;;
12469;SDS011;36499;46.484;13.832;2023-02-11T06:04:49;8.67;;;2.80;;
12469;SDS011;36499;46.484;13.832;2023-02-11T06:07:16;4.28;;;2.45;;
12469;SDS011;36499;46.484;13.832;2023-02-11T06:09:45;4.33;;;2.33;;
12469;SDS011;36499;46.484;13.832;2023-02-11T06:12:12;3.40;;;2.50;;
12469;SDS011;36499;46.484;13.832;2023-02-11T06:14:39;4.13;;;2.50;;
12469;SDS011;36499;46.484;13.832;2023-02-11T06:17:06;6.40;;;3.40;;
12469;SDS011;36499;46.484;13.832;2023-02-11T06:19:33;6.93;;;3.37;;
12469;SDS011;36499;46.484;13.832;2023-02-11T06:22:01;4.77;;;3.23;;
12469;SDS011;36499;46.484;13.832;2023-02-11T06:24:28;4.40;;;2.97;;
12469;SDS011;36499;46.484;13.832;2023-02-11T06:26:56;7.57;;;3.00;;
12469;SDS011;36499;46.484;13.832;2023-02-11T06:29:23;5.97;;;3.03;;
12469;SDS011;36499;46.484;13.832;2023-02-11T06:31:50;6.50;;;2.87;;
12469;SDS011;36499;46.484;13.832;2023-02-11T06:34:17;3.90;;;2.57;;
12469;SDS011;36499;46.484;13.832;2023-02-11T06:36:44;6.27;;;2.63;;
12469;SDS011;36499;46.484;13.832;2023-02-11T06:39:11;5.30;;;3.10;;
12469;SDS011;36499;46.484;13.832;2023-02-11T06:41:39;6.00;;;3.50;;
12469;SDS011;36499;46.484;13.832;2023-02-11T06:44:07;7.80;;;3.00;;
12469;SDS011;36499;46.484;13.832;2023-02-11T06:46:34;7.43;;;2.57;;
12469;SDS011;36499;46.484;13.832;2023-02-11T06:49:01;5.07;;;2.80;;
12469;SDS011;36499;46.484;13.832;2023-02-11T06:51:28;5.30;;;3.00;;
12469;SDS011;36499;46.484;13.832;2023-02-11T06:53:55;4.73;;;3.20;;
12469;SDS011;36499;46.484;13.832;2023-02-11T06:56:23;4.63;;;3.07;;
12469;SDS011;36499;46.484;13.832;2023-02-11T06:58:51;6.37;;;3.20;;
12469;SDS011;36499;46.484;13.832;2023-02-11T07:01:21;6.33;;;3.13;;
12469;SDS011;36499;46.484;13.832;2023-02-11T07:03:50;5.03;;;2.90;;
12469;SDS011;36499;46.484;13.832;2023-02-11T07:06:18;3.70;;;2.93;;
12469;SDS011;36499;46.484;13.832;2023-02-11T07:08:48;5.47;;;2.83;;
12469;SDS011;36499;46.484;13.832;2023-02-11T07:11:17;8.13;;;3.30;;
12469;SDS011;36499;46.484;13.832;2023-02-11T07:13:48;7.43;;;3.87;;
12469;SDS011;36499;46.484;13.832;2023-02-11T07:16:17;4.83;;;2.73;;
12469;SDS011;36499;46.484;13.832;2023-02-11T07:18:47;6.17;;;2.80;;
12469;SDS011;36499;46.484;13.832;2023-02-11T07:21:15;3.07;;;2.13;;
12469;SDS011;36499;46.484;13.832;2023-02-11T07:23:46;4.57;;;2.80;;
12469;SDS011;36499;46.484;13.832;2023-02-11T07:26:14;8.13;;;3.53;;
12469;SDS011;36499;46.484;13.832;2023-02-11T07:28:44;13.33;;;5.20;;
12469;SDS011;36499;46.484;13.832;2023-02-11T07:31:12;9.73;;;5.40;;
12469;SDS011;36499;46.484;13.832;2023-02-11T07:33:42;6.63;;;3.93;;
12469;SDS011;36499;46.484;13.832;2023-02-11T07:36:13;5.83;;;3.17;;
12469;SDS011;36499;46.484;13.832;2023-02-11T07:38:41;7.73;;;4.60;;
12469;SDS011;36499;46.484;13.832;2023-02-11T07:41:09;8.07;;;4.13;;
12469;SDS011;36499;46.484;13.832;2023-02-11T07:43:39;7.20;;;3.73;;
12469;SDS011;36499;46.484;13.832;2023-02-11T07:46:08;4.40;;;2.77;;
12469;SDS011;36499;46.484;13.832;2023-02-11T07:48:38;4.57;;;2.87;;
12469;SDS011;36499;46.484;13.832;2023-02-11T07:51:06;4.87;;;2.60;;
12469;SDS011;36499;46.484;13.832;2023-02-11T07:53:37;5.43;;;3.10;;
12469;SDS011;36499;46.484;13.832;2023-02-11T07:56:05;5.83;;;2.83;;
12469;SDS011;36499;46.484;13.832;2023-02-11T07:58:34;4.87;;;2.57;;
12469;SDS011;36499;46.484;13.832;2023-02-11T08:01:02;3.60;;;2.40;;
12469;SDS011;36499;46.484;13.832;2023-02-11T08:03:31;5.80;;;3.13;;
12469;SDS011;36499;46.484;13.832;2023-02-11T08:06:01;4.93;;;2.47;;
12469;SDS011;36499;46.484;13.832;2023-02-11T08:08:29;9.63;;;3.00;;
12469;SDS011;36499;46.484;13.832;2023-02-11T08:10:58;6.33;;;3.50;;
12469;SDS011;36499;46.484;13.832;2023-02-11T08:13:31;7.27;;;3.70;;
12469;SDS011;36499;46.484;13.832;2023-02-11T08:15:58;6.17;;;3.53;;
12469;SDS011;36499;46.484;13.832;2023-02-11T08:18:25;5.90;;;3.20;;
12469;SDS011;36499;46.484;13.832;2023-02-11T08:20:53;4.67;;;2.70;;
12469;SDS011;36499;46.484;13.832;2023-02-11T08:23:20;4.13;;;2.77;;
12469;SDS011;36499;46.484;13.832;2023-02-11T08:25:47;8.60;;;3.30;;
12469;SDS011;36499;46.484;13.832;2023-02-11T08:28:15;4.63;;;2.60;;
12469;SDS011;36499;46.484;13.832;2023-02-11T08:30:42;6.17;;;2.93;;
12469;SDS011;36499;46.484;13.832;2023-02-11T08:33:10;7.33;;;2.70;;
12469;SDS011;36499;46.484;13.832;2023-02-11T08:35:37;3.10;;;2.30;;
12469;SDS011;36499;46.484;13.832;2023-02-11T08:38:05;3.53;;;2.10;;
12469;SDS011;36499;46.484;13.832;2023-02-11T08:40:33;4.57;;;2.50;;
12469;SDS011;36499;46.484;13.832;2023-02-11T08:43:00;6.47;;;2.23;;
12469;SDS011;36499;46.484;13.832;2023-02-11T08:45:28;3.37;;;2.10;;
12469;SDS011;36499;46.484;13.832;2023-02-11T08:47:56;7.23;;;2.63;;
12469;SDS011;36499;46.484;13.832;2023-02-11T08:50:23;4.27;;;2.67;;
12469;SDS011;36499;46.484;13.832;2023-02-11T08:52:52;4.43;;;2.60;;
12469;SDS011;36499;46.484;13.832;2023-02-11T08:55:19;5.73;;;2.93;;
12469;SDS011;36499;46.484;13.832;2023-02-11T08:57:46;4.03;;;2.80;;
12469;SDS011;36499;46.484;13.832;2023-02-11T09:00:14;4.53;;;2.67;;
12469;SDS011;36499;46.484;13.832;2023-02-11T09:02:44;2.90;;;2.13;;
12469;SDS011;36499;46.484;13.832;2023-02-11T09:05:11;4.00;;;2.57;;
12469;SDS011;36499;46.484;13.832;2023-02-11T09:07:38;4.70;;;2.50;;
12469;SDS011;36499;46.484;13.832;2023-02-11T09:10:05;4.50;;;2.27;;
12469;SDS011;36499;46.484;13.832;2023-02-11T09:12:33;6.50;;;2.37;;
12469;SDS011;36499;46.484;13.832;2023-02-11T09:15:00;7.63;;;2.73;;
12469;SDS011;36499;46.484;13.832;2023-02-11T09:17:27;3.97;;;2.20;;
12469;SDS011;36499;46.484;13.832;2023-02-11T09:19:56;3.60;;;2.10;;
12469;SDS011;36499;46.484;13.832;2023-02-11T09:22:23;4.00;;;2.40;;
12469;SDS011;36499;46.484;13.832;2023-02-11T09:24:50;4.23;;;2.10;;
12469;SDS011;36499;46.484;13.832;2023-02-11T09:27:17;6.33;;;1.87;;
12469;SDS011;36499;46.484;13.832;2023-02-11T09:29:44;4.90;;;2.43;;
12469;SDS011;36499;46.484;13.832;2023-02-11T09:32:11;3.10;;;2.33;;
12469;SDS011;36499;46.484;13.832;2023-02-11T09:34:38;4.43;;;2.27;;
12469;SDS011;36499;46.484;13.832;2023-02-11T09:37:06;7.20;;;2.50;;
12469;SDS011;36499;46.484;13.832;2023-02-11T09:39:33;3.47;;;1.87;;
12469;SDS011;36499;46.484;13.832;2023-02-11T09:42:09;2.43;;;1.70;;
12469;SDS011;36499;46.484;13.832;2023-02-11T09:45:10;3.33;;;2.27;;
12469;SDS011;36499;46.484;13.832;2023-02-11T09:47:47;2.87;;;1.83;;
12469;SDS011;36499;46.484;13.832;2023-02-11T09:50:25;2.00;;;1.70;;
12469;SDS011;36499;46.484;13.832;2023-02-11T09:53:00;1.80;;;1.43;;
12469;SDS011;36499;46.484;13.832;2023-02-11T09:55:32;2.80;;;1.70;;
12469;SDS011;36499;46.484;13.832;2023-02-11T09:58:06;2.53;;;1.90;;
12469;SDS011;36499;46.484;13.832;2023-02-11T10:00:40;4.37;;;2.07;;
12469;SDS011;36499;46.484;13.832;2023-02-11T10:03:33;5.07;;;2.77;;
12469;SDS011;36499;46.484;13.832;2023-02-11T10:06:31;3.70;;;2.17;;
12469;SDS011;36499;46.484;13.832;2023-02-11T10:09:20;2.93;;;2.23;;
12469;SDS011;36499;46.484;13.832;2023-02-11T10:12:10;2.00;;;1.60;;
12469;SDS011;36499;46.484;13.832;2023-02-11T10:15:08;1.97;;;1.60;;
12469;SDS011;36499;46.484;13.832;2023-02-11T10:17:58;3.47;;;1.93;;
12469;SDS011;36499;46.484;13.832;2023-02-11T10:20:47;11.33;;;2.20;;
12469;SDS011;36499;46.484;13.832;2023-02-11T10:23:28;2.07;;;1.50;;
12469;SDS011;36499;46.484;13.832;2023-02-11T10:26:07;5.20;;;1.93;;
12469;SDS011;36499;46.484;13.832;2023-02-11T10:28:39;13.50;;;2.60;;
12469;SDS011;36499;46.484;13.832;2023-02-11T10:31:12;21.17;;;2.90;;
12469;SDS011;36499;46.484;13.832;2023-02-11T10:33:46;2.80;;;1.90;;
12469;SDS011;36499;46.484;13.832;2023-02-11T10:36:23;3.30;;;1.90;;
12469;SDS011;36499;46.484;13.832;2023-02-11T10:38:53;3.03;;;2.00;;
12469;SDS011;36499;46.484;13.832;2023-02-11T10:41:23;2.13;;;1.80;;
12469;SDS011;36499;46.484;13.832;2023-02-11T10:43:59;5.30;;;2.13;;
12469;SDS011;36499;46.484;13.832;2023-02-11T10:46:28;2.57;;;2.10;;
12469;SDS011;36499;46.484;13.832;2023-02-11T10:48:59;4.27;;;2.07;;
12469;SDS011;36499;46.484;13.832;2023-02-11T10:51:28;3.03;;;2.10;;
12469;SDS011;36499;46.484;13.832;2023-02-11T10:54:09;3.10;;;2.20;;
12469;SDS011;36499;46.484;13.832;2023-02-11T10:56:47;2.70;;;2.10;;
12469;SDS011;36499;46.484;13.832;2023-02-11T10:59:24;3.23;;;2.00;;
12469;SDS011;36499;46.484;13.832;2023-02-11T11:01:56;5.97;;;1.87;;
12469;SDS011;36499;46.484;13.832;2023-02-11T11:04:33;4.43;;;1.90;;
12469;SDS011;36499;46.484;13.832;2023-02-11T11:07:12;3.13;;;1.80;;
12469;SDS011;36499;46.484;13.832;2023-02-11T11:09:49;3.70;;;1.50;;
12469;SDS011;36499;46.484;13.832;2023-02-11T11:12:24;2.60;;;1.70;;
12469;SDS011;36499;46.484;13.832;2023-02-11T11:15:16;4.10;;;1.67;;
12469;SDS011;36499;46.484;13.832;2023-02-11T11:17:46;2.73;;;1.80;;
12469;SDS011;36499;46.484;13.832;2023-02-11T11:20:17;2.37;;;1.70;;
12469;SDS011;36499;46.484;13.832;2023-02-11T11:22:51;2.97;;;1.70;;
12469;SDS011;36499;46.484;13.832;2023-02-11T11:25:40;2.83;;;1.60;;
12469;SDS011;36499;46.484;13.832;2023-02-11T11:28:19;2.23;;;1.73;;
12469;SDS011;36499;46.484;13.832;2023-02-11T11:30:50;2.17;;;1.67;;
12469;SDS011;36499;46.484;13.832;2023-02-11T11:33:22;1.63;;;1.40;;
12469;SDS011;36499;46.484;13.832;2023-02-11T11:35:54;13.17;;;2.10;;
12469;SDS011;36499;46.484;13.832;2023-02-11T11:38:26;4.60;;;1.77;;
12469;SDS011;36499;46.484;13.832;2023-02-11T11:41:19;5.57;;;1.63;;
12469;SDS011;36499;46.484;13.832;2023-02-11T11:44:16;2.87;;;1.97;;
12469;SDS011;36499;46.484;13.832;2023-02-11T11:47:03;3.30;;;1.80;;
12469;SDS011;36499;46.484;13.832;2023-02-11T11:49:48;4.33;;;1.90;;
12469;SDS011;36499;46.484;13.832;2023-02-11T11:52:38;12.13;;;1.93;;
12469;SDS011;36499;46.484;13.832;2023-02-11T11:55:16;2.63;;;1.83;;
12469;SDS011;36499;46.484;13.832;2023-02-11T11:57:47;2.27;;;1.87;;
12469;SDS011;36499;46.484;13.832;2023-02-11T12:00:18;3.43;;;1.70;;
12469;SDS011;36499;46.484;13.832;2023-02-11T12:02:54;5.50;;;1.80;;
12469;SDS011;36499;46.484;13.832;2023-02-11T12:06:11;3.30;;;1.70;;
12469;SDS011;36499;46.484;13.832;2023-02-11T12:08:55;2.13;;;1.57;;
12469;SDS011;36499;46.484;13.832;2023-02-11T12:11:36;2.00;;;1.50;;
12469;SDS011;36499;46.484;13.832;2023-02-11T12:14:23;3.27;;;1.43;;
12469;SDS011;36499;46.484;13.832;2023-02-11T12:17:10;3.37;;;1.60;;
12469;SDS011;36499;46.484;13.832;2023-02-11T12:20:03;4.23;;;2.40;;
12469;SDS011;36499;46.484;13.832;2023-02-11T12:22:50;14.83;;;6.50;;
12469;SDS011;36499;46.484;13.832;2023-02-11T12:25:36;6.13;;;3.40;;
12469;SDS011;36499;46.484;13.832;2023-02-11T12:28:19;4.40;;;2.20;;
12469;SDS011;36499;46.484;13.832;2023-02-11T12:31:07;4.37;;;2.00;;
12469;SDS011;36499;46.484;13.832;2023-02-11T12:33:57;4.53;;;2.20;;
12469;SDS011;36499;46.484;13.832;2023-02-11T12:36:44;6.17;;;3.80;;
12469;SDS011;36499;46.484;13.832;2023-02-11T12:39:31;4.30;;;2.20;;
12469;SDS011;36499;46.484;13.832;2023-02-11T12:42:15;22.77;;;11.70;;
12469;SDS011;36499;46.484;13.832;2023-02-11T12:45:49;3.37;;;2.43;;
12469;SDS011;36499;46.484;13.832;2023-02-11T12:48:38;5.03;;;3.33;;
12469;SDS011;36499;46.484;13.832;2023-02-11T12:51:43;3.07;;;2.00;;
12469;SDS011;36499;46.484;13.832;2023-02-11T12:54:29;5.33;;;2.50;;
12469;SDS011;36499;46.484;13.832;2023-02-11T12:57:05;3.90;;;2.40;;
12469;SDS011;36499;46.484;13.832;2023-02-11T12:59:43;5.63;;;2.40;;
12469;SDS011;36499;46.484;13.832;2023-02-11T13:02:23;5.47;;;2.30;;
12469;SDS011;36499;46.484;13.832;2023-02-11T13:05:03;13.33;;;6.47;;
12469;SDS011;36499;46.484;13.832;2023-02-11T13:07:46;5.33;;;3.20;;
12469;SDS011;36499;46.484;13.832;2023-02-11T13:10:23;4.67;;;2.60;;
12469;SDS011;36499;46.484;13.832;2023-02-11T13:12:55;4.97;;;3.27;;
12469;SDS011;36499;46.484;13.832;2023-02-11T13:15:45;8.10;;;4.93;;
12469;SDS011;36499;46.484;13.832;2023-02-11T13:18:34;10.87;;;5.83;;
12469;SDS011;36499;46.484;13.832;2023-02-11T13:24:33;6.63;;;3.73;;
12469;SDS011;36499;46.484;13.832;2023-02-11T13:27:10;14.07;;;8.20;;
12469;SDS011;36499;46.484;13.832;2023-02-11T13:30:02;27.23;;;10.97;;
12469;SDS011;36499;46.484;13.832;2023-02-11T13:35:48;7.50;;;3.43;;
12469;SDS011;36499;46.484;13.832;2023-02-11T13:38:39;3.43;;;2.50;;
12469;SDS011;36499;46.484;13.832;2023-02-11T13:41:19;12.73;;;7.87;;
12469;SDS011;36499;46.484;13.832;2023-02-11T13:43:58;7.53;;;5.07;;
12469;SDS011;36499;46.484;13.832;2023-02-11T13:46:45;10.73;;;4.87;;
12469;SDS011;36499;46.484;13.832;2023-02-11T13:49:21;25.67;;;12.47;;
12469;SDS011;36499;46.484;13.832;2023-02-11T13:51:53;21.10;;;11.57;;
12469;SDS011;36499;46.484;13.832;2023-02-11T13:54:27;7.73;;;4.30;;
12469;SDS011;36499;46.484;13.832;2023-02-11T14:00:20;14.07;;;8.10;;
12469;SDS011;36499;46.484;13.832;2023-02-11T14:03:25;8.03;;;3.70;;
12469;SDS011;36499;46.484;13.832;2023-02-11T14:06:14;7.13;;;3.43;;
12469;SDS011;36499;46.484;13.832;2023-02-11T14:12:24;7.70;;;3.93;;
12469;SDS011;36499;46.484;13.832;2023-02-11T14:15:01;10.77;;;5.57;;
12469;SDS011;36499;46.484;13.832;2023-02-11T14:21:29;5.90;;;4.13;;
12469;SDS011;36499;46.484;13.832;2023-02-11T14:27:17;3.20;;;1.80;;
12469;SDS011;36499;46.484;13.832;2023-02-11T14:30:19;2.80;;;1.90;;
12469;SDS011;36499;46.484;13.832;2023-02-11T14:39:52;5.53;;;2.30;;
12469;SDS011;36499;46.484;13.832;2023-02-11T14:42:28;2.90;;;2.30;;
12469;SDS011;36499;46.484;13.832;2023-02-11T14:45:02;4.27;;;2.03;;
12469;SDS011;36499;46.484;13.832;2023-02-11T14:47:34;2.60;;;1.80;;
12469;SDS011;36499;46.484;13.832;2023-02-11T14:50:11;2.47;;;1.80;;
12469;SDS011;36499;46.484;13.832;2023-02-11T14:52:44;2.53;;;1.80;;
12469;SDS011;36499;46.484;13.832;2023-02-11T14:55:14;11.40;;;4.57;;
12469;SDS011;36499;46.484;13.832;2023-02-11T14:58:06;7.63;;;2.63;;
12469;SDS011;36499;46.484;13.832;2023-02-11T15:00:48;3.27;;;2.20;;
12469;SDS011;36499;46.484;13.832;2023-02-11T15:03:29;3.50;;;2.20;;
12469;SDS011;36499;46.484;13.832;2023-02-11T15:06:01;62.27;;;18.67;;
12469;SDS011;36499;46.484;13.832;2023-02-11T15:08:33;39.03;;;14.07;;
12469;SDS011;36499;46.484;13.832;2023-02-11T15:11:08;2.40;;;1.90;;
12469;SDS011;36499;46.484;13.832;2023-02-11T15:13:38;2.33;;;1.50;;
12469;SDS011;36499;46.484;13.832;2023-02-11T15:16:15;1.50;;;1.40;;
12469;SDS011;36499;46.484;13.832;2023-02-11T15:18:47;18.07;;;5.67;;
12469;SDS011;36499;46.484;13.832;2023-02-11T15:21:19;38.90;;;11.30;;
12469;SDS011;36499;46.484;13.832;2023-02-11T15:23:55;147.87;;;39.57;;
12469;SDS011;36499;46.484;13.832;2023-02-11T15:26:26;73.27;;;24.40;;
12469;SDS011;36499;46.484;13.832;2023-02-11T15:28:54;37.70;;;14.30;;
12469;SDS011;36499;46.484;13.832;2023-02-11T15:31:23;78.20;;;28.40;;
12469;SDS011;36499;46.484;13.832;2023-02-11T15:33:53;7.10;;;3.70;;
12469;SDS011;36499;46.484;13.832;2023-02-11T15:36:21;8.87;;;4.00;;
12469;SDS011;36499;46.484;13.832;2023-02-11T15:39:18;106.63;;;45.40;;
12469;SDS011;36499;46.484;13.832;2023-02-11T15:44:43;77.60;;;36.20;;
12469;SDS011;36499;46.484;13.832;2023-02-11T15:47:15;75.93;;;36.00;;